Time;durP1;ratioP1;P1;durP2;ratioP2;P2;SDS_P1;SDS_P2;PMS_P1;PMS_P2;Temp;Humidity;BMP_temperature;BMP_pressure;BME280_temperature;BME280_humidity;BME280_pressure;Samples;Min_cycle;Max_cycle;Signal;HPM_P1;HPM_P2
2023/05/02 00:01:08;;;;;;;;;;;14.30;96.40;;;;;;4975607;28;19941;-70
2023/05/02 00:03:34;;;;;;;;;;;14.30;96.10;;;;;;4962528;28;20565;-70
2023/05/02 00:05:59;;;;;;;;;;;14.30;96.30;;;;;;4982192;28;20327;-70
2023/05/02 00:08:25;;;;;;;;;;;14.30;96.20;;;;;;4969210;28;19922;-70
2023/05/02 00:10:51;;;;;;;;;;;14.30;96.20;;;;;;4992438;28;20328;-70
2023/05/02 00:13:16;;;;;;;;;;;14.30;96.20;;;;;;4968785;28;19918;-71
2023/05/02 00:15:42;;;;;;;;;;;14.20;96.80;;;;;;4984090;28;19921;-70
2023/05/02 00:18:07;;;;;;;;;;;14.20;96.60;;;;;;5012475;28;19964;-70
2023/05/02 00:20:36;;;;;;;;;;;14.20;96.80;;;;;;5012577;28;20459;-70
2023/05/02 00:23:01;;;;;;;;;;;14.20;96.90;;;;;;5009534;28;19970;-70
2023/05/02 00:25:27;;;;;;;;;;;14.20;97.50;;;;;;5030933;28;20011;-70
2023/05/02 00:27:52;;;;;;;;;;;14.20;97.80;;;;;;5019198;28;19928;-70
2023/05/02 00:30:19;;;;;;;;;;;14.20;97.60;;;;;;5009490;28;19917;-70
2023/05/02 00:32:46;;;;;;;;;;;14.20;97.60;;;;;;4986402;28;19917;-70
2023/05/02 00:35:12;;;;;;;;;;;14.30;97.40;;;;;;5024017;28;19917;-70
2023/05/02 00:37:39;;;;;;;;;;;14.20;97.80;;;;;;5008992;28;19913;-70
2023/05/02 00:40:05;;;;;;;;;;;14.10;99.00;;;;;;5023876;28;19924;-70
2023/05/02 00:42:33;;;;;;;;;;;14.10;98.40;;;;;;5003338;28;19956;-70
2023/05/02 00:44:59;;;;;;;;;;;13.90;99.90;;;;;;4975816;28;20003;-70
2023/05/02 00:47:24;;;;;;;;;;;14.00;99.90;;;;;;5015361;28;20012;-70
2023/05/02 00:49:50;;;;;;;;;;;13.90;99.90;;;;;;4990300;28;19925;-70
2023/05/02 00:52:16;;;;;;;;;;;13.90;99.90;;;;;;5014049;28;19921;-70
2023/05/02 00:54:41;;;;;;;;;;;14.00;99.90;;;;;;5014370;28;20326;-70
2023/05/02 00:57:07;;;;;;;;;;;13.90;99.90;;;;;;5002683;28;19929;-70
2023/05/02 00:59:36;;;;;;;;;;;13.90;99.90;;;;;;5008123;28;19913;-70
2023/05/02 01:02:04;;;;;;;;;;;13.90;99.90;;;;;;5011708;28;20352;-70
2023/05/02 01:04:37;;;;;;;;;;;13.70;99.90;;;;;;5014908;28;19917;-70
2023/05/02 01:07:22;;;;;;;;;;;13.70;99.90;;;;;;5014872;28;20261;-70
2023/05/02 01:09:51;;;;;;;;;;;13.50;99.90;;;;;;5002443;28;19921;-70
2023/05/02 01:12:37;;;;;;;;;;;13.70;99.90;;;;;;5006756;28;19913;-70
2023/05/02 01:15:04;;;;;;;;;;;13.60;99.90;;;;;;5013588;28;19924;-70
2023/05/02 01:17:31;;;;;;;;;;;13.70;99.90;;;;;;5006898;28;20001;-70
2023/05/02 01:19:58;;;;;;;;;;;13.60;99.90;;;;;;4994014;28;19933;-70
2023/05/02 01:22:24;;;;;;;;;;;13.40;99.90;;;;;;5009026;28;19928;-70
2023/05/02 01:25:01;;;;;;;;;;;13.60;99.90;;;;;;4987114;28;20261;-70
2023/05/02 01:27:30;;;;;;;;;;;13.40;99.90;;;;;;4998336;28;19921;-70
2023/05/02 01:29:55;;;;;;;;;;;13.40;99.90;;;;;;5001130;28;20465;-70
2023/05/02 01:32:22;;;;;;;;;;;13.40;99.90;;;;;;4989902;28;20017;-70
2023/05/02 01:34:47;;;;;;;;;;;13.40;99.90;;;;;;5001767;28;19968;-70
2023/05/02 01:37:13;;;;;;;;;;;13.40;99.90;;;;;;5000194;28;20327;-70
2023/05/02 01:39:39;;;;;;;;;;;13.40;99.90;;;;;;4989674;28;20268;-70
2023/05/02 01:42:04;;;;;;;;;;;13.40;99.90;;;;;;5004360;28;19918;-70
2023/05/02 01:44:30;;;;;;;;;;;13.50;99.90;;;;;;4994178;28;19929;-70
2023/05/02 01:46:56;;;;;;;;;;;13.40;99.90;;;;;;4985035;28;19948;-70
2023/05/02 01:49:22;;;;;;;;;;;13.20;99.90;;;;;;5007378;28;20306;-70
2023/05/02 01:51:48;;;;;;;;;;;13.00;99.90;;;;;;5009520;28;19918;-70
2023/05/02 01:54:14;;;;;;;;;;;13.00;99.90;;;;;;5011935;28;19928;-70
2023/05/02 01:56:40;;;;;;;;;;;13.10;99.90;;;;;;4998750;28;19929;-70
2023/05/02 01:59:07;;;;;;;;;;;13.00;99.90;;;;;;5004018;28;19972;-70
2023/05/02 02:01:34;;;;;;;;;;;13.00;99.90;;;;;;4989307;28;19917;-70
2023/05/02 02:04:00;;;;;;;;;;;12.80;99.90;;;;;;4990065;28;19917;-70
2023/05/02 02:06:27;;;;;;;;;;;12.70;99.90;;;;;;5010813;28;19920;-70
2023/05/02 02:08:53;;;;;;;;;;;12.70;99.90;;;;;;4991198;28;19918;-70
2023/05/02 02:11:39;;;;;;;;;;;12.70;99.90;;;;;;5006873;28;19997;-70
2023/05/02 02:14:06;;;;;;;;;;;12.80;99.90;;;;;;4984422;28;19966;-70
2023/05/02 02:16:32;;;;;;;;;;;12.70;99.90;;;;;;4997302;28;19926;-70
2023/05/02 02:18:59;;;;;;;;;;;12.60;99.90;;;;;;4990293;28;20234;-70
2023/05/02 02:21:25;;;;;;;;;;;12.60;99.90;;;;;;5006149;28;19921;-70
2023/05/02 02:23:51;;;;;;;;;;;12.70;99.90;;;;;;4972535;28;20774;-70
2023/05/02 02:26:16;;;;;;;;;;;12.60;99.90;;;;;;4985382;28;20020;-70
2023/05/02 02:28:42;;;;;;;;;;;12.60;99.90;;;;;;4992170;28;19952;-70
2023/05/02 02:31:08;;;;;;;;;;;12.80;99.90;;;;;;4990350;28;19921;-70
2023/05/02 02:33:33;;;;;;;;;;;12.80;99.90;;;;;;4991244;28;19914;-70
2023/05/02 02:36:03;;;;;;;;;;;12.80;99.90;;;;;;4997420;28;19926;-70
2023/05/02 02:38:32;;;;;;;;;;;12.90;99.90;;;;;;4977479;28;19953;-70
2023/05/02 02:41:24;;;;;;;;;;;12.90;99.90;;;;;;4974891;28;19933;-70
2023/05/02 02:44:00;;;;;;;;;;;12.80;99.90;;;;;;4992752;28;19937;-71
2023/05/02 02:46:26;;;;;;;;;;;12.70;99.90;;;;;;4973924;28;19918;-70
2023/05/02 02:49:08;;;;;;;;;;;12.50;99.90;;;;;;4993374;28;19917;-70
2023/05/02 02:51:37;;;;;;;;;;;12.50;99.90;;;;;;4974151;28;19918;-70
2023/05/02 02:54:13;;;;;;;;;;;12.50;99.90;;;;;;4994851;28;19925;-70
2023/05/02 02:56:40;;;;;;;;;;;12.40;99.90;;;;;;4997393;28;20334;-70
2023/05/02 02:59:18;;;;;;;;;;;12.30;99.90;;;;;;4985390;28;19914;-70
2023/05/02 03:01:46;;;;;;;;;;;12.20;99.90;;;;;;4994739;28;19983;-70
2023/05/02 03:04:11;;;;;;;;;;;12.20;99.90;;;;;;4987528;28;19918;-70
2023/05/02 03:06:37;;;;;;;;;;;12.30;99.90;;;;;;4974678;28;19945;-70
2023/05/02 03:09:04;;;;;;;;;;;12.20;99.90;;;;;;4985688;28;19933;-70
2023/05/02 03:11:29;;;;;;;;;;;12.40;99.90;;;;;;4969517;28;19922;-70
2023/05/02 03:13:55;;;;;;;;;;;12.40;99.90;;;;;;4994518;28;19925;-70
2023/05/02 03:16:31;;;;;;;;;;;12.30;99.90;;;;;;4995002;28;20221;-70
2023/05/02 03:18:57;;;;;;;;;;;12.40;99.90;;;;;;5013613;28;19949;-70
2023/05/02 03:21:23;;;;;;;;;;;12.30;99.90;;;;;;5015575;28;20012;-70
2023/05/02 03:23:48;;;;;;;;;;;12.40;99.90;;;;;;5010514;28;20320;-70
2023/05/02 03:26:14;;;;;;;;;;;12.20;99.90;;;;;;5010044;28;19952;-70
2023/05/02 03:28:40;;;;;;;;;;;12.20;99.90;;;;;;4997405;28;19917;-70
2023/05/02 03:31:05;;;;;;;;;;;12.10;99.90;;;;;;5031001;28;20218;-69
2023/05/02 03:33:31;;;;;;;;;;;12.10;99.90;;;;;;5026758;28;20260;-70
2023/05/02 03:35:57;;;;;;;;;;;12.10;99.90;;;;;;5029409;28;19917;-70
2023/05/02 03:38:22;;;;;;;;;;;12.00;99.90;;;;;;4993081;28;19917;-70
2023/05/02 03:40:48;;;;;;;;;;;12.20;99.90;;;;;;5010195;28;20337;-70
2023/05/02 03:43:14;;;;;;;;;;;12.20;99.90;;;;;;5030035;28;20227;-70
2023/05/02 03:45:39;;;;;;;;;;;12.30;99.90;;;;;;5005159;28;19913;-70
2023/05/02 03:48:05;;;;;;;;;;;12.20;99.90;;;;;;4992066;28;19953;-70
2023/05/02 03:50:31;;;;;;;;;;;12.10;99.90;;;;;;5009910;28;19928;-70
2023/05/02 03:52:57;;;;;;;;;;;12.10;99.90;;;;;;5015193;28;19936;-70
2023/05/02 03:55:23;;;;;;;;;;;12.10;99.90;;;;;;5003314;28;20314;-70
2023/05/02 03:57:49;;;;;;;;;;;12.00;99.90;;;;;;5007501;28;19913;-70
2023/05/02 04:00:14;;;;;;;;;;;11.90;99.90;;;;;;5002497;28;19998;-70
2023/05/02 04:02:40;;;;;;;;;;;12.00;99.90;;;;;;5019699;28;19945;-70
2023/05/02 04:05:07;;;;;;;;;;;12.00;99.90;;;;;;5010024;28;20305;-70
2023/05/02 04:07:33;;;;;;;;;;;12.10;99.90;;;;;;4992352;28;20381;-70
2023/05/02 04:09:59;;;;;;;;;;;12.10;99.90;;;;;;4985727;28;19918;-70
2023/05/02 04:12:24;;;;;;;;;;;12.00;99.90;;;;;;4992784;28;20215;-70
2023/05/02 04:14:50;;;;;;;;;;;11.80;99.90;;;;;;5000714;28;20064;-70
2023/05/02 04:17:16;;;;;;;;;;;11.90;99.90;;;;;;5002097;28;20026;-70
2023/05/02 04:19:41;;;;;;;;;;;12.00;99.90;;;;;;5001689;28;19991;-70
2023/05/02 04:22:07;;;;;;;;;;;12.00;99.90;;;;;;5010257;28;19918;-70
2023/05/02 04:24:33;;;;;;;;;;;12.00;99.90;;;;;;5011187;28;19932;-70
2023/05/02 04:26:58;;;;;;;;;;;12.00;99.90;;;;;;5008375;28;20595;-70
2023/05/02 04:29:24;;;;;;;;;;;12.00;99.90;;;;;;5012221;28;19913;-70
2023/05/02 04:31:50;;;;;;;;;;;12.10;99.90;;;;;;5000336;28;20327;-70
2023/05/02 04:34:16;;;;;;;;;;;12.10;99.90;;;;;;5006384;28;20775;-70
2023/05/02 04:36:43;;;;;;;;;;;12.10;99.90;;;;;;5022198;28;19922;-70
2023/05/02 04:39:09;;;;;;;;;;;12.00;99.90;;;;;;5012984;28;19992;-70
2023/05/02 04:41:34;;;;;;;;;;;12.00;99.90;;;;;;5000927;28;19942;-70
2023/05/02 04:44:00;;;;;;;;;;;12.00;99.90;;;;;;5012148;28;19965;-70
2023/05/02 04:46:26;;;;;;;;;;;12.00;99.90;;;;;;4999468;28;20027;-70
2023/05/02 04:48:52;;;;;;;;;;;11.90;99.90;;;;;;5003326;28;19917;-69
2023/05/02 04:51:18;;;;;;;;;;;11.80;99.90;;;;;;5007696;28;19940;-69
2023/05/02 04:53:43;;;;;;;;;;;11.90;99.90;;;;;;4977240;28;19921;-70
2023/05/02 04:56:10;;;;;;;;;;;11.90;99.90;;;;;;5003814;28;20236;-69
2023/05/02 04:58:35;;;;;;;;;;;11.90;99.90;;;;;;5013660;28;19984;-70
2023/05/02 05:01:01;;;;;;;;;;;11.90;99.90;;;;;;5001586;28;20004;-70
2023/05/02 05:03:29;;;;;;;;;;;12.00;99.90;;;;;;4984732;28;19948;-70
2023/05/02 05:05:55;;;;;;;;;;;11.90;99.90;;;;;;4997754;28;19917;-70
2023/05/02 05:08:20;;;;;;;;;;;11.80;99.90;;;;;;4974965;28;19932;-70
2023/05/02 05:10:46;;;;;;;;;;;11.90;99.90;;;;;;5002000;28;19922;-70
2023/05/02 05:13:12;;;;;;;;;;;12.10;99.90;;;;;;5007337;28;19930;-70
2023/05/02 05:15:39;;;;;;;;;;;12.10;99.90;;;;;;4972965;28;19992;-69
2023/05/02 05:18:05;;;;;;;;;;;12.10;99.90;;;;;;4999189;28;19992;-69
2023/05/02 05:20:30;;;;;;;;;;;12.00;99.90;;;;;;5009922;28;20361;-69
2023/05/02 05:22:56;;;;;;;;;;;12.00;99.90;;;;;;5007168;28;20007;-69
2023/05/02 05:25:22;;;;;;;;;;;11.90;99.90;;;;;;5003237;28;19965;-69
2023/05/02 05:27:48;;;;;;;;;;;11.90;99.90;;;;;;5004458;28;19930;-70
2023/05/02 05:30:13;;;;;;;;;;;11.80;99.90;;;;;;4997035;28;19917;-69
2023/05/02 05:32:39;;;;;;;;;;;11.60;99.90;;;;;;5000441;28;19925;-74
2023/05/02 05:35:05;;;;;;;;;;;11.60;99.90;;;;;;4994208;28;19932;-74
2023/05/02 05:37:30;;;;;;;;;;;11.60;99.90;;;;;;4991855;28;20405;-74
2023/05/02 05:39:56;;;;;;;;;;;11.60;99.90;;;;;;5009980;28;19918;-74
2023/05/02 05:42:22;;;;;;;;;;;11.70;99.90;;;;;;5009690;28;20013;-75
2023/05/02 05:44:47;;;;;;;;;;;11.90;99.90;;;;;;5010536;28;19961;-74
2023/05/02 05:47:17;;;;;;;;;;;12.00;99.90;;;;;;4992918;28;19918;-74
2023/05/02 05:49:43;;;;;;;;;;;11.80;99.90;;;;;;5002807;28;20012;-74
2023/05/02 05:52:09;;;;;;;;;;;11.70;99.90;;;;;;4997762;28;19996;-74
2023/05/02 05:54:35;;;;;;;;;;;11.80;99.90;;;;;;4989140;28;19918;-74
2023/05/02 05:57:02;;;;;;;;;;;11.50;99.90;;;;;;4983005;28;20306;-74
2023/05/02 05:59:28;;;;;;;;;;;11.50;99.90;;;;;;4972416;28;19918;-74
2023/05/02 06:01:54;;;;;;;;;;;11.70;99.90;;;;;;4991527;28;19918;-74
2023/05/02 06:04:20;;;;;;;;;;;11.80;99.90;;;;;;5014393;28;20626;-74
2023/05/02 06:06:46;;;;;;;;;;;11.70;99.90;;;;;;5009533;28;20008;-74
2023/05/02 06:09:11;;;;;;;;;;;11.70;99.90;;;;;;5005423;28;19963;-74
2023/05/02 06:11:37;;;;;;;;;;;11.80;99.90;;;;;;4986557;28;20009;-75
2023/05/02 06:14:03;;;;;;;;;;;11.40;99.90;;;;;;5010711;28;19932;-74
2023/05/02 06:16:28;;;;;;;;;;;11.50;99.90;;;;;;5005613;28;19953;-74
2023/05/02 06:18:54;;;;;;;;;;;11.60;99.90;;;;;;5033400;28;19920;-74
2023/05/02 06:21:20;;;;;;;;;;;11.70;99.90;;;;;;5013120;28;19918;-75
2023/05/02 06:23:45;;;;;;;;;;;11.70;99.90;;;;;;5012503;28;19914;-74
2023/05/02 06:26:11;;;;;;;;;;;11.50;99.90;;;;;;5017206;28;19921;-74
2023/05/02 06:28:36;;;;;;;;;;;11.70;99.90;;;;;;5001099;28;19949;-75
2023/05/02 06:31:03;;;;;;;;;;;11.60;99.90;;;;;;5018041;28;19920;-75
2023/05/02 06:33:30;;;;;;;;;;;11.40;99.90;;;;;;5010459;28;19917;-75
2023/05/02 06:35:55;;;;;;;;;;;11.30;99.90;;;;;;5010805;28;19929;-74
2023/05/02 06:38:21;;;;;;;;;;;11.10;99.90;;;;;;5017693;28;19921;-73
2023/05/02 06:40:47;;;;;;;;;;;11.10;99.90;;;;;;4995596;28;19956;-74
2023/05/02 06:43:13;;;;;;;;;;;11.00;99.90;;;;;;5005984;28;19917;-74
2023/05/02 06:45:39;;;;;;;;;;;11.10;99.90;;;;;;5040873;28;19976;-74
2023/05/02 06:48:05;;;;;;;;;;;11.10;99.90;;;;;;5018499;28;20231;-74
2023/05/02 06:50:30;;;;;;;;;;;11.30;99.90;;;;;;5008660;28;19917;-74
2023/05/02 06:52:56;;;;;;;;;;;11.30;99.90;;;;;;4994202;28;19913;-74
2023/05/02 06:55:21;;;;;;;;;;;11.30;99.90;;;;;;4994809;28;19917;-74
2023/05/02 06:57:50;;;;;;;;;;;11.20;99.90;;;;;;5022448;28;19913;-74
2023/05/02 07:00:16;;;;;;;;;;;11.20;99.90;;;;;;5023451;28;19943;-74
2023/05/02 07:02:43;;;;;;;;;;;11.10;99.90;;;;;;4998638;28;20223;-74
2023/05/02 07:05:08;;;;;;;;;;;11.20;99.90;;;;;;5033388;28;19999;-74
2023/05/02 07:07:35;;;;;;;;;;;11.00;99.90;;;;;;5032317;28;20050;-74
2023/05/02 07:10:01;;;;;;;;;;;11.10;99.90;;;;;;5021786;28;20222;-74
2023/05/02 07:12:27;;;;;;;;;;;11.00;99.90;;;;;;5006031;28;19972;-74
2023/05/02 07:14:53;;;;;;;;;;;11.10;99.90;;;;;;5026160;28;20330;-74
2023/05/02 07:17:18;;;;;;;;;;;10.90;99.90;;;;;;5013656;28;19921;-74
2023/05/02 07:19:44;;;;;;;;;;;10.70;99.90;;;;;;5009017;28;19921;-74
2023/05/02 07:22:10;;;;;;;;;;;10.70;99.90;;;;;;5025372;28;19917;-74
2023/05/02 07:24:38;;;;;;;;;;;10.60;99.90;;;;;;4994128;28;19922;-75
2023/05/02 07:27:04;;;;;;;;;;;10.70;99.90;;;;;;5017974;28;19914;-75
2023/05/02 07:29:29;;;;;;;;;;;10.90;99.90;;;;;;4990385;28;19913;-74
2023/05/02 07:31:55;;;;;;;;;;;10.80;99.90;;;;;;5017942;28;19920;-74
2023/05/02 07:34:21;;;;;;;;;;;10.70;99.90;;;;;;4982563;28;19925;-74
2023/05/02 07:36:46;;;;;;;;;;;10.70;99.90;;;;;;4984283;28;20289;-75
2023/05/02 07:39:12;;;;;;;;;;;10.80;99.90;;;;;;5001216;28;19913;-74
2023/05/02 07:41:38;;;;;;;;;;;10.90;99.90;;;;;;5005934;28;19933;-74
2023/05/02 07:44:03;;;;;;;;;;;10.70;99.90;;;;;;4994587;28;20234;-74
2023/05/02 07:46:30;;;;;;;;;;;10.60;99.90;;;;;;4990910;28;19917;-74
2023/05/02 07:48:55;;;;;;;;;;;10.40;99.90;;;;;;5026634;28;20300;-70
2023/05/02 07:51:21;;;;;;;;;;;10.60;99.90;;;;;;5000598;28;19921;-70
2023/05/02 07:53:53;;;;;;;;;;;10.60;99.90;;;;;;5032406;28;19913;-70
2023/05/02 07:56:20;;;;;;;;;;;10.40;99.90;;;;;;5014438;28;19931;-70
2023/05/02 07:58:45;;;;;;;;;;;10.50;99.90;;;;;;5026852;28;20342;-71
2023/05/02 08:01:11;;;;;;;;;;;10.50;99.90;;;;;;5022393;28;19971;-70
2023/05/02 08:03:36;;;;;;;;;;;10.60;99.90;;;;;;4998114;28;19917;-70
2023/05/02 08:06:02;;;;;;;;;;;10.90;99.90;;;;;;5010083;28;20318;-70
2023/05/02 08:08:28;;;;;;;;;;;11.00;99.90;;;;;;5021410;28;20411;-70
2023/05/02 08:10:54;;;;;;;;;;;11.20;99.90;;;;;;5011357;28;19914;-71
2023/05/02 08:13:20;;;;;;;;;;;11.30;99.90;;;;;;5010445;28;19917;-71
2023/05/02 08:15:45;;;;;;;;;;;11.00;99.90;;;;;;5009609;28;19983;-71
2023/05/02 08:18:11;;;;;;;;;;;11.00;99.90;;;;;;5020901;28;19956;-71
2023/05/02 08:20:37;;;;;;;;;;;10.90;99.90;;;;;;5012539;28;19914;-70
2023/05/02 08:23:02;;;;;;;;;;;11.00;99.90;;;;;;5033444;28;19923;-70
2023/05/02 08:25:29;;;;;;;;;;;11.20;99.90;;;;;;5012594;28;19944;-70
2023/05/02 08:27:55;;;;;;;;;;;11.30;99.90;;;;;;5013255;28;19921;-70
2023/05/02 08:30:20;;;;;;;;;;;11.10;99.90;;;;;;4999073;28;20395;-71
2023/05/02 08:32:46;;;;;;;;;;;11.30;99.90;;;;;;4984849;28;19913;-74
2023/05/02 08:35:12;;;;;;;;;;;11.30;99.90;;;;;;5012168;28;19995;-74
2023/05/02 08:37:39;;;;;;;;;;;11.30;99.90;;;;;;4986853;28;19921;-73
2023/05/02 08:40:05;;;;;;;;;;;11.40;99.90;;;;;;4984073;28;19917;-74
2023/05/02 08:42:31;;;;;;;;;;;11.30;99.90;;;;;;5009156;28;20114;-74
2023/05/02 08:44:57;;;;;;;;;;;11.20;99.90;;;;;;5027453;28;19967;-74
2023/05/02 08:47:22;;;;;;;;;;;10.70;99.90;;;;;;4968952;28;19948;-74
2023/05/02 08:49:48;;;;;;;;;;;10.80;99.90;;;;;;5004067;28;20325;-74
2023/05/02 08:52:14;;;;;;;;;;;10.70;99.90;;;;;;5001246;28;20013;-73
2023/05/02 08:54:40;;;;;;;;;;;11.00;99.90;;;;;;5011610;28;20377;-73
2023/05/02 08:57:06;;;;;;;;;;;11.10;99.90;;;;;;5007887;28;20016;-74
2023/05/02 08:59:31;;;;;;;;;;;10.70;99.90;;;;;;5019808;28;19932;-69
2023/05/02 09:01:59;;;;;;;;;;;10.70;99.90;;;;;;5035502;28;19913;-69
2023/05/02 09:04:26;;;;;;;;;;;10.90;99.90;;;;;;5006602;28;20306;-70
2023/05/02 09:06:52;;;;;;;;;;;11.00;99.90;;;;;;5028943;28;19932;-70
2023/05/02 09:09:18;;;;;;;;;;;11.10;99.90;;;;;;5013193;28;19930;-69
2023/05/02 09:11:45;;;;;;;;;;;11.20;99.90;;;;;;4996379;28;19918;-69
2023/05/02 09:14:14;;;;;;;;;;;11.20;99.90;;;;;;4999867;28;19917;-69
2023/05/02 09:16:40;;;;;;;;;;;11.10;99.90;;;;;;5010631;28;19963;-70
2023/05/02 09:19:06;;;;;;;;;;;10.90;99.90;;;;;;5020433;28;19925;-70
2023/05/02 09:21:36;;;;;;;;;;;10.80;99.90;;;;;;5015029;28;19956;-69
2023/05/02 09:24:03;;;;;;;;;;;10.70;99.90;;;;;;5010908;28;20325;-69
2023/05/02 09:26:31;;;;;;;;;;;10.70;99.90;;;;;;5012110;28;19922;-68
2023/05/02 09:28:57;;;;;;;;;;;10.60;99.90;;;;;;5032038;28;19928;-69
2023/05/02 09:31:26;;;;;;;;;;;10.60;99.90;;;;;;5005290;28;19925;-69
2023/05/02 09:33:52;;;;;;;;;;;10.60;99.90;;;;;;5008560;28;19944;-69
2023/05/02 09:36:19;;;;;;;;;;;10.50;99.90;;;;;;5015297;28;20342;-69
2023/05/02 09:38:45;;;;;;;;;;;10.60;99.90;;;;;;5024459;28;19914;-69
2023/05/02 09:41:12;;;;;;;;;;;10.60;99.90;;;;;;5015206;28;20595;-69
2023/05/02 09:43:38;;;;;;;;;;;10.50;99.90;;;;;;5032480;28;19928;-69
2023/05/02 09:46:04;;;;;;;;;;;10.70;99.90;;;;;;5001529;28;19975;-70
2023/05/02 09:48:30;;;;;;;;;;;10.50;99.90;;;;;;5029493;28;19913;-70
2023/05/02 09:50:56;;;;;;;;;;;10.40;99.90;;;;;;4998766;28;20035;-69
2023/05/02 09:53:26;;;;;;;;;;;10.40;99.90;;;;;;5002612;28;20874;-70
2023/05/02 09:56:05;;;;;;;;;;;10.40;99.90;;;;;;5012355;28;19925;-69
2023/05/02 09:58:31;;;;;;;;;;;10.50;99.90;;;;;;5005181;28;19995;-69
2023/05/02 10:00:56;;;;;;;;;;;10.50;99.90;;;;;;5011321;28;20296;-69
2023/05/02 10:03:23;;;;;;;;;;;10.50;99.90;;;;;;5013991;28;20010;-70
2023/05/02 10:05:49;;;;;;;;;;;10.40;99.90;;;;;;5028685;28;19921;-69
2023/05/02 10:08:15;;;;;;;;;;;10.40;99.90;;;;;;5004408;28;19928;-70
2023/05/02 10:10:43;;;;;;;;;;;10.40;99.90;;;;;;5001517;28;19913;-69
2023/05/02 10:13:09;;;;;;;;;;;10.40;99.90;;;;;;5012331;28;20313;-69
2023/05/02 10:15:36;;;;;;;;;;;10.30;99.90;;;;;;5007143;28;19940;-69
2023/05/02 10:18:04;;;;;;;;;;;10.30;99.90;;;;;;4997065;28;20827;-69
2023/05/02 10:20:31;;;;;;;;;;;10.40;99.90;;;;;;4998266;28;20016;-69
2023/05/02 10:23:00;;;;;;;;;;;10.50;99.90;;;;;;5005344;28;20322;-69
2023/05/02 10:25:26;;;;;;;;;;;10.60;99.90;;;;;;5010318;28;20346;-69
2023/05/02 10:27:52;;;;;;;;;;;10.60;99.90;;;;;;5005417;28;19918;-69
2023/05/02 10:30:17;;;;;;;;;;;10.60;99.90;;;;;;5000386;28;19921;-70
2023/05/02 10:32:43;;;;;;;;;;;10.80;99.90;;;;;;5006139;28;19949;-69
2023/05/02 10:35:09;;;;;;;;;;;10.80;99.90;;;;;;5016566;28;20004;-68
2023/05/02 10:37:35;;;;;;;;;;;10.80;99.90;;;;;;5005245;28;20079;-69
2023/05/02 10:40:00;;;;;;;;;;;10.80;99.90;;;;;;5017743;28;19921;-69
2023/05/02 10:42:26;;;;;;;;;;;10.70;99.90;;;;;;5004016;28;19924;-69
2023/05/02 10:44:52;;;;;;;;;;;10.70;99.90;;;;;;5008148;28;19918;-70
2023/05/02 10:47:17;;;;;;;;;;;10.80;99.70;;;;;;5001705;28;19914;-69
2023/05/02 10:49:48;;;;;;;;;;;10.80;99.60;;;;;;5001173;28;19918;-69
2023/05/02 10:52:27;;;;;;;;;;;10.80;99.90;;;;;;4985253;28;19913;-69
2023/05/02 10:55:12;;;;;;;;;;;10.70;99.60;;;;;;5007825;28;19944;-69
2023/05/02 10:57:56;;;;;;;;;;;10.70;99.90;;;;;;5012918;28;20009;-69
2023/05/02 11:00:26;;;;;;;;;;;10.80;99.70;;;;;;5002939;28;19918;-69
2023/05/02 11:02:51;;;;;;;;;;;10.90;99.80;;;;;;5007177;28;19921;-70
2023/05/02 11:05:17;;;;;;;;;;;10.90;99.70;;;;;;4990138;28;20243;-70
2023/05/02 11:07:43;;;;;;;;;;;10.90;99.20;;;;;;5006004;28;20322;-69
2023/05/02 11:10:15;;;;;;;;;;;11.10;98.40;;;;;;5002879;28;19933;-69
2023/05/02 11:12:46;;;;;;;;;;;11.10;98.90;;;;;;5022471;28;19925;-69
2023/05/02 11:15:12;;;;;;;;;;;11.10;98.20;;;;;;5007090;28;20437;-69
2023/05/02 11:18:07;;;;;;;;;;;11.20;98.30;;;;;;4996528;28;20458;-69
2023/05/02 11:20:34;;;;;;;;;;;11.50;98.50;;;;;;4993394;28;19922;-69
2023/05/02 11:23:15;;;;;;;;;;;11.40;96.80;;;;;;4991903;28;19925;-69
2023/05/02 11:25:42;;;;;;;;;;;11.20;97.50;;;;;;4987782;28;19918;-69
2023/05/02 11:28:28;;;;;;;;;;;11.10;98.00;;;;;;4987101;28;20350;-70
2023/05/02 11:30:53;;;;;;;;;;;11.20;98.10;;;;;;4990629;28;19964;-69
2023/05/02 11:33:19;;;;;;;;;;;11.30;98.30;;;;;;4989123;28;19952;-69
2023/05/02 11:35:46;;;;;;;;;;;11.20;97.90;;;;;;4994222;28;19918;-69
2023/05/02 11:38:12;;;;;;;;;;;11.30;97.60;;;;;;5004605;28;19929;-69
2023/05/02 11:40:43;;;;;;;;;;;11.20;97.80;;;;;;4996767;28;19928;-69
2023/05/02 11:43:13;;;;;;;;;;;11.30;97.00;;;;;;4991247;28;20295;-69
2023/05/02 11:45:39;;;;;;;;;;;11.40;97.20;;;;;;5003317;28;20402;-69
2023/05/02 11:48:08;;;;;;;;;;;11.50;96.70;;;;;;4989283;28;19937;-69
2023/05/02 11:50:40;;;;;;;;;;;11.50;96.80;;;;;;5003320;28;19928;-69
2023/05/02 11:53:08;;;;;;;;;;;11.40;96.60;;;;;;5002095;28;20048;-69
2023/05/02 11:55:34;;;;;;;;;;;11.40;96.10;;;;;;4980735;28;19914;-69
2023/05/02 11:58:00;;;;;;;;;;;11.40;96.20;;;;;;4998422;28;20320;-69
2023/05/02 12:00:26;;;;;;;;;;;11.30;96.60;;;;;;4996063;28;20355;-69
2023/05/02 12:02:52;;;;;;;;;;;11.40;96.20;;;;;;4973398;28;20255;-70
2023/05/02 12:05:26;;;;;;;;;;;11.40;96.20;;;;;;4993479;28;19914;-69
2023/05/02 12:07:53;;;;;;;;;;;11.50;96.70;;;;;;4989618;28;19997;-69
2023/05/02 12:10:18;;;;;;;;;;;11.30;96.20;;;;;;4997262;28;19924;-69
2023/05/02 12:12:44;;;;;;;;;;;11.40;96.30;;;;;;4987169;28;19918;-69
2023/05/02 12:15:10;;;;;;;;;;;11.50;95.90;;;;;;5001748;28;19948;-70
2023/05/02 12:17:36;;;;;;;;;;;11.50;96.00;;;;;;4990930;28;20272;-70
2023/05/02 12:20:02;;;;;;;;;;;11.60;95.90;;;;;;4979166;28;19918;-70
2023/05/02 12:22:30;;;;;;;;;;;11.60;95.60;;;;;;5001942;28;20089;-69
2023/05/02 12:24:55;;;;;;;;;;;11.50;95.80;;;;;;4990101;28;19928;-69
2023/05/02 12:27:21;;;;;;;;;;;11.60;95.30;;;;;;4992178;28;20278;-69
2023/05/02 12:29:47;;;;;;;;;;;11.60;95.00;;;;;;4965909;28;20235;-70
2023/05/02 12:32:13;;;;;;;;;;;11.70;95.30;;;;;;4973502;28;19918;-70
2023/05/02 12:34:38;;;;;;;;;;;11.80;95.60;;;;;;4994514;28;19953;-70
2023/05/02 12:37:04;;;;;;;;;;;11.90;94.50;;;;;;4996894;28;19922;-70
2023/05/02 12:39:48;;;;;;;;;;;12.00;94.70;;;;;;4986087;28;19918;-69
2023/05/02 12:42:14;;;;;;;;;;;12.10;93.50;;;;;;4992031;28;19918;-70
2023/05/02 12:44:40;;;;;;;;;;;12.40;94.00;;;;;;4992180;28;19914;-69
2023/05/02 12:47:07;;;;;;;;;;;12.40;92.70;;;;;;4988356;28;19941;-69
2023/05/02 12:49:32;;;;;;;;;;;12.60;92.40;;;;;;4986442;28;19956;-68
2023/05/02 12:51:59;;;;;;;;;;;12.60;91.70;;;;;;4996927;28;19954;-68
2023/05/02 12:54:25;;;;;;;;;;;12.60;91.90;;;;;;4989398;28;20554;-68
2023/05/02 12:56:51;;;;;;;;;;;12.70;92.40;;;;;;4989941;28;19980;-69
2023/05/02 12:59:30;;;;;;;;;;;12.40;91.80;;;;;;4985472;28;19917;-68
2023/05/02 13:01:56;;;;;;;;;;;12.20;91.70;;;;;;4984479;28;19918;-69
2023/05/02 13:04:32;;;;;;;;;;;12.10;91.80;;;;;;4994483;28;20672;-69
2023/05/02 13:06:57;;;;;;;;;;;12.00;91.00;;;;;;4988678;28;20398;-69
2023/05/02 13:09:23;;;;;;;;;;;12.00;90.60;;;;;;4991604;28;19917;-68
2023/05/02 13:11:50;;;;;;;;;;;12.10;90.90;;;;;;5004456;28;19924;-69
2023/05/02 13:14:15;;;;;;;;;;;12.40;90.40;;;;;;4974897;28;19928;-69
2023/05/02 13:16:41;;;;;;;;;;;12.60;88.50;;;;;;4994846;28;19921;-69
2023/05/02 13:19:07;;;;;;;;;;;12.90;87.10;;;;;;5020210;28;19952;-68
2023/05/02 13:21:32;;;;;;;;;;;13.10;86.10;;;;;;5012841;28;19917;-69
2023/05/02 13:23:58;;;;;;;;;;;12.70;84.80;;;;;;4987851;28;20326;-69
2023/05/02 13:26:24;;;;;;;;;;;12.60;85.00;;;;;;4986636;28;19914;-69
2023/05/02 13:28:49;;;;;;;;;;;12.40;84.30;;;;;;4977048;28;19924;-69
2023/05/02 13:31:15;;;;;;;;;;;12.40;85.00;;;;;;5017187;28;19983;-69
2023/05/02 13:33:41;;;;;;;;;;;12.40;84.00;;;;;;4998840;28;19923;-69
2023/05/02 13:36:07;;;;;;;;;;;12.70;84.10;;;;;;5011846;28;19928;-69
2023/05/02 13:38:33;;;;;;;;;;;12.90;83.70;;;;;;5007190;28;19971;-74
2023/05/02 13:41:00;;;;;;;;;;;13.10;82.10;;;;;;5012853;28;20203;-73
2023/05/02 13:43:26;;;;;;;;;;;13.00;81.80;;;;;;5011397;28;19928;-69
2023/05/02 13:45:52;;;;;;;;;;;12.80;81.80;;;;;;5024608;28;19921;-69
2023/05/02 13:48:17;;;;;;;;;;;12.70;81.30;;;;;;4981925;28;20062;-70
2023/05/02 13:50:44;;;;;;;;;;;13.30;80.30;;;;;;5018646;28;19947;-69
2023/05/02 13:53:10;;;;;;;;;;;13.60;79.20;;;;;;5001332;28;19917;-70
2023/05/02 13:55:35;;;;;;;;;;;13.90;78.90;;;;;;5030516;28;19924;-69
2023/05/02 13:58:01;;;;;;;;;;;13.60;79.40;;;;;;5024594;28;19924;-69
2023/05/02 14:00:28;;;;;;;;;;;13.70;77.00;;;;;;5040190;28;19923;-70
2023/05/02 14:02:53;;;;;;;;;;;14.00;76.70;;;;;;5034508;28;19917;-70
2023/05/02 14:05:19;;;;;;;;;;;14.30;75.20;;;;;;5010277;28;20280;-69
2023/05/02 14:07:46;;;;;;;;;;;14.00;73.80;;;;;;5006248;28;19928;-70
2023/05/02 14:10:11;;;;;;;;;;;13.90;76.10;;;;;;4999069;28;19921;-70
2023/05/02 14:12:37;;;;;;;;;;;14.10;75.40;;;;;;5013536;28;20239;-70
2023/05/02 14:15:03;;;;;;;;;;;13.80;76.10;;;;;;5027370;28;20218;-70